createdAt,value
2019-05-05T00:01:27.076Z,4.90
2019-05-05T00:04:07.557Z,3.80
2019-05-05T00:06:37.936Z,5.17
2019-05-05T00:09:08.659Z,4.42
2019-05-05T00:12:05.373Z,4.15
2019-05-05T00:14:54.958Z,3.75
2019-05-05T00:17:26.467Z,4.55
2019-05-05T00:19:58.891Z,5.25
2019-05-05T00:22:29.297Z,4.70
2019-05-05T00:24:59.729Z,4.55
2019-05-05T00:27:30.138Z,4.85
2019-05-05T00:30:00.526Z,5.03
2019-05-05T00:32:30.897Z,5.30
2019-05-05T00:35:01.377Z,4.35
2019-05-05T00:37:31.726Z,4.95
2019-05-05T00:40:02.128Z,5.55
2019-05-05T00:42:32.527Z,5.35
2019-05-05T00:45:04.907Z,5.25
2019-05-05T00:47:45.060Z,5.70
2019-05-05T00:50:18.406Z,5.55
2019-05-05T00:52:48.756Z,6.00
2019-05-05T00:55:19.249Z,6.15
2019-05-05T00:57:49.639Z,6.17
2019-05-05T01:00:45.284Z,6.62
2019-05-05T01:03:17.262Z,6.80
2019-05-05T01:05:56.782Z,7.03
2019-05-05T01:08:28.877Z,8.03
2019-05-05T01:10:59.509Z,6.50
2019-05-05T01:13:29.871Z,6.80
2019-05-05T01:16:00.263Z,7.67
2019-05-05T01:18:30.617Z,6.55
2019-05-05T01:21:01.357Z,7.55
2019-05-05T01:23:37.122Z,7.80
2019-05-05T01:26:07.619Z,8.13
2019-05-05T01:28:38.001Z,7.08
2019-05-05T01:31:14.555Z,7.87
2019-05-05T01:34:15.990Z,7.45
2019-05-05T01:36:47.907Z,7.40
2019-05-05T01:39:50.719Z,7.80
2019-05-05T01:42:21.220Z,7.80
2019-05-05T01:44:51.639Z,8.23
2019-05-05T01:47:22.013Z,8.23
2019-05-05T01:49:55.229Z,8.23
2019-05-05T01:52:25.845Z,8.23
2019-05-05T01:54:56.239Z,8.35
2019-05-05T01:57:27.342Z,8.50
2019-05-05T01:59:58.114Z,8.30
2019-05-05T02:02:28.500Z,8.33
2019-05-05T02:04:58.915Z,10.38
2019-05-05T02:07:29.283Z,8.30
2019-05-05T02:09:59.715Z,9.18
2019-05-05T02:12:30.098Z,8.85
2019-05-05T02:15:00.466Z,9.78
2019-05-05T02:17:30.843Z,8.85
2019-05-05T02:20:01.269Z,9.00
2019-05-05T02:22:31.626Z,8.85
2019-05-05T02:25:03.737Z,9.55
2019-05-05T02:27:34.398Z,9.38
2019-05-05T02:30:20.229Z,10.88
2019-05-05T02:32:59.593Z,9.78
2019-05-05T02:35:29.980Z,9.20
2019-05-05T02:38:00.371Z,9.05
2019-05-05T02:40:31.055Z,10.60
2019-05-05T02:43:01.546Z,10.15
2019-05-05T02:45:44.174Z,9.03
2019-05-05T02:48:16.144Z,9.33
2019-05-05T02:51:02.077Z,9.38
2019-05-05T02:53:35.966Z,9.98
2019-05-05T02:56:10.981Z,10.63
2019-05-05T02:58:44.227Z,9.68
2019-05-05T03:01:34.057Z,9.70
2019-05-05T03:04:05.895Z,10.82
2019-05-05T03:06:39.046Z,10.08
2019-05-05T03:09:09.426Z,10.55
2019-05-05T03:11:43.566Z,8.98
2019-05-05T03:14:14.597Z,9.25
2019-05-05T03:16:45.076Z,8.95
2019-05-05T03:19:16.242Z,9.35
2019-05-05T03:21:46.679Z,9.20
2019-05-05T03:24:17.149Z,9.45
2019-05-05T03:26:47.935Z,9.40
2019-05-05T03:29:20.497Z,9.10
2019-05-05T03:31:51.491Z,10.63
2019-05-05T03:34:23.910Z,9.18
2019-05-05T03:36:54.213Z,9.93
2019-05-05T03:39:26.412Z,8.18
2019-05-05T03:42:16.442Z,8.48
2019-05-05T03:45:11.829Z,9.00
2019-05-05T03:47:44.077Z,9.20
2019-05-05T03:50:15.087Z,10.55
2019-05-05T03:52:46.075Z,8.98
2019-05-05T03:55:16.556Z,9.75
2019-05-05T03:57:47.070Z,9.18
2019-05-05T04:00:25.919Z,9.45
2019-05-05T04:03:01.090Z,9.58
2019-05-05T04:05:38.490Z,8.75
2019-05-05T04:08:09.686Z,9.40
2019-05-05T04:10:40.070Z,8.70
2019-05-05T04:13:10.751Z,9.10
2019-05-05T04:15:44.188Z,9.13
2019-05-05T04:18:24.447Z,9.33
2019-05-05T04:20:54.816Z,8.38
2019-05-05T04:23:25.219Z,9.08
2019-05-05T04:25:55.586Z,9.53
2019-05-05T04:28:26.024Z,9.48
2019-05-05T04:30:56.407Z,10.43
2019-05-05T04:33:26.825Z,9.30
2019-05-05T04:35:57.230Z,9.08
2019-05-05T04:38:27.632Z,9.20
2019-05-05T04:40:58.014Z,10.58
2019-05-05T04:43:28.414Z,9.40
2019-05-05T04:45:58.867Z,9.48
2019-05-05T04:48:36.093Z,9.45
2019-05-05T04:51:13.771Z,10.00
2019-05-05T04:54:03.804Z,8.38
2019-05-05T04:56:34.490Z,9.05
2019-05-05T04:59:04.999Z,9.63
2019-05-05T05:01:35.897Z,9.93
2019-05-05T05:04:37.327Z,8.45
2019-05-05T05:07:07.742Z,8.75
2019-05-05T05:09:38.134Z,9.10
2019-05-05T05:12:08.556Z,8.65
2019-05-05T05:14:38.958Z,9.08
2019-05-05T05:17:14.154Z,9.40
2019-05-05T05:19:44.733Z,9.45
2019-05-05T05:22:15.149Z,9.18
2019-05-05T05:24:45.560Z,8.50
2019-05-05T05:27:15.988Z,8.20
2019-05-05T05:29:46.411Z,9.95
2019-05-05T05:32:16.798Z,8.63
2019-05-05T05:34:47.190Z,8.70
2019-05-05T05:37:17.573Z,8.93
2019-05-05T05:40:00.052Z,8.03
2019-05-05T05:42:30.452Z,8.85
2019-05-05T05:45:23.766Z,9.15
2019-05-05T05:48:10.125Z,7.30
2019-05-05T05:50:49.745Z,7.75
2019-05-05T05:53:20.114Z,7.70
2019-05-05T05:55:50.516Z,7.62
2019-05-05T05:58:20.951Z,7.08
2019-05-05T06:00:51.358Z,6.87
2019-05-05T06:03:21.745Z,8.03
2019-05-05T06:05:54.048Z,17.62
2019-05-05T06:08:24.415Z,9.63
2019-05-05T06:10:54.902Z,6.50
2019-05-05T06:13:25.338Z,7.40
2019-05-05T06:15:55.726Z,6.37
2019-05-05T06:18:26.158Z,6.92
2019-05-05T06:20:56.561Z,6.33
2019-05-05T06:23:26.910Z,6.75
2019-05-05T06:25:57.287Z,5.72
2019-05-05T06:28:30.833Z,5.75
2019-05-05T06:31:01.300Z,6.65
2019-05-05T06:33:31.659Z,5.92
2019-05-05T06:36:03.768Z,5.47
2019-05-05T06:38:34.779Z,5.78
2019-05-05T06:41:14.683Z,5.62
2019-05-05T06:44:03.695Z,6.22
2019-05-05T06:46:53.825Z,5.53
2019-05-05T06:49:24.439Z,4.92
2019-05-05T06:51:54.861Z,5.83
2019-05-05T06:54:25.349Z,5.40
2019-05-05T06:56:56.174Z,5.92
2019-05-05T06:59:26.571Z,5.35
2019-05-05T07:01:57.093Z,5.35
2019-05-05T07:04:29.366Z,4.42
2019-05-05T07:06:59.731Z,5.40
2019-05-05T07:09:30.109Z,4.92
2019-05-05T07:12:04.563Z,4.97
2019-05-05T07:14:35.215Z,4.67
2019-05-05T07:17:05.616Z,5.22
2019-05-05T07:19:35.971Z,5.20
2019-05-05T07:22:06.435Z,4.42
2019-05-05T07:24:36.899Z,4.30
2019-05-05T07:27:07.378Z,5.70
2019-05-05T07:29:37.783Z,4.70
2019-05-05T07:32:08.231Z,4.45
2019-05-05T07:34:57.486Z,5.30
2019-05-05T07:37:27.971Z,4.70
2019-05-05T07:39:58.323Z,5.08
2019-05-05T07:42:28.746Z,4.22
2019-05-05T07:44:59.153Z,4.40
2019-05-05T07:47:29.547Z,4.30
2019-05-05T07:49:59.939Z,5.25
2019-05-05T07:52:30.342Z,4.35
2019-05-05T07:55:00.731Z,3.87
2019-05-05T07:57:31.168Z,4.25
2019-05-05T08:00:01.606Z,3.60
2019-05-05T08:02:33.846Z,4.35
2019-05-05T08:05:04.743Z,3.60
2019-05-05T08:07:35.238Z,3.27
2019-05-05T08:10:05.822Z,3.12
2019-05-05T08:12:36.237Z,3.58
2019-05-05T08:15:07.101Z,2.65
2019-05-05T08:17:51.291Z,2.42
2019-05-05T08:20:25.786Z,2.85
2019-05-05T08:22:56.267Z,2.80
2019-05-05T08:25:40.376Z,3.25
2019-05-05T08:28:31.493Z,2.20
2019-05-05T08:31:25.033Z,3.10
2019-05-05T08:33:55.446Z,2.55
2019-05-05T08:36:25.857Z,3.80
2019-05-05T08:38:56.281Z,2.92
2019-05-05T08:41:26.682Z,2.42
2019-05-05T08:43:57.130Z,2.45
2019-05-05T08:46:27.597Z,2.40
2019-05-05T08:48:57.997Z,2.75
2019-05-05T08:51:28.381Z,2.42
2019-05-05T08:53:58.867Z,2.00
2019-05-05T08:56:29.295Z,2.20
2019-05-05T08:58:59.694Z,2.15
2019-05-05T09:01:30.065Z,2.20
2019-05-05T09:04:00.462Z,2.12
2019-05-05T09:06:30.828Z,2.02
2019-05-05T09:09:01.202Z,1.90
2019-05-05T09:11:34.299Z,2.42
2019-05-05T09:14:04.979Z,2.05
2019-05-05T09:16:35.314Z,2.27
2019-05-05T09:19:10.485Z,2.75
2019-05-05T09:21:40.941Z,2.75
2019-05-05T09:24:45.490Z,2.77
2019-05-05T09:27:40.832Z,2.00
2019-05-05T09:30:14.214Z,2.22
2019-05-05T09:32:44.702Z,2.72
2019-05-05T09:35:15.397Z,2.83
2019-05-05T09:37:45.790Z,2.40
2019-05-05T09:40:20.170Z,2.40
2019-05-05T09:42:50.586Z,2.20
2019-05-05T09:45:20.938Z,1.80
2019-05-05T09:47:51.360Z,1.87
2019-05-05T09:50:23.738Z,2.17
2019-05-05T09:52:53.910Z,2.35
2019-05-05T09:55:24.279Z,2.10
2019-05-05T09:57:54.689Z,2.22
2019-05-05T10:00:25.061Z,1.87
2019-05-05T10:02:55.455Z,2.37
2019-05-05T10:05:25.831Z,1.90
2019-05-05T10:07:56.253Z,2.40
2019-05-05T10:10:26.642Z,1.70
2019-05-05T10:12:57.012Z,1.70
2019-05-05T10:15:27.453Z,54.88
2019-05-05T10:17:57.865Z,5.58
2019-05-05T10:20:28.389Z,2.15
2019-05-05T10:22:58.801Z,1.50
2019-05-05T10:25:47.488Z,2.15
2019-05-05T10:28:17.929Z,1.80
2019-05-05T10:30:48.615Z,1.70
2019-05-05T10:33:19.036Z,1.55
2019-05-05T10:35:49.426Z,1.80
2019-05-05T10:38:19.833Z,1.30
2019-05-05T10:40:50.273Z,1.75
2019-05-05T10:43:20.676Z,1.42
2019-05-05T10:45:51.131Z,1.47
2019-05-05T10:48:23.473Z,1.65
2019-05-05T10:50:53.804Z,1.80
2019-05-05T10:53:24.232Z,1.90
2019-05-05T10:55:54.665Z,1.80
2019-05-05T10:58:25.084Z,1.67
2019-05-05T11:01:05.357Z,1.50
2019-05-05T11:03:35.761Z,1.40
2019-05-05T11:06:06.193Z,1.52
2019-05-05T11:08:36.587Z,1.90
2019-05-05T11:11:07.250Z,1.60
2019-05-05T11:13:42.904Z,1.80
2019-05-05T11:16:14.521Z,1.92
2019-05-05T11:18:45.613Z,1.47
2019-05-05T11:21:16.053Z,1.82
2019-05-05T11:23:46.486Z,2.08
2019-05-05T11:26:24.551Z,2.12
2019-05-05T11:28:54.829Z,1.55
2019-05-05T11:31:25.268Z,1.77
2019-05-05T11:34:02.601Z,1.70
2019-05-05T11:36:47.044Z,1.60
2019-05-05T11:39:17.487Z,1.40
2019-05-05T11:41:49.067Z,1.40
2019-05-05T11:44:19.502Z,1.50
2019-05-05T11:46:49.890Z,1.85
2019-05-05T11:49:20.437Z,1.40
2019-05-05T11:51:50.844Z,2.00
2019-05-05T11:54:21.341Z,1.70
2019-05-05T11:56:53.728Z,2.10
2019-05-05T11:59:27.763Z,1.52
2019-05-05T12:01:58.355Z,1.25
2019-05-05T12:04:28.723Z,1.22
2019-05-05T12:06:59.114Z,1.42
2019-05-05T12:09:48.483Z,1.35
2019-05-05T12:12:18.885Z,1.50
2019-05-05T12:14:50.438Z,1.90
2019-05-05T12:17:36.766Z,2.35
2019-05-05T12:20:08.254Z,1.90
2019-05-05T12:22:38.614Z,1.57
2019-05-05T12:25:28.698Z,1.40
2019-05-05T12:28:06.550Z,1.50
2019-05-05T12:30:37.038Z,1.20
2019-05-05T12:33:07.429Z,1.80
2019-05-05T12:35:37.825Z,2.10
2019-05-05T12:38:08.229Z,2.62
2019-05-05T12:40:38.662Z,2.15
2019-05-05T12:43:09.052Z,1.70
2019-05-05T12:45:41.176Z,2.00
2019-05-05T12:48:25.901Z,1.42
2019-05-05T12:50:56.352Z,1.20
2019-05-05T12:53:26.773Z,2.10
2019-05-05T12:55:57.178Z,1.10
2019-05-05T12:58:27.558Z,1.40
2019-05-05T13:01:20.423Z,1.22
2019-05-05T13:03:50.786Z,1.35
2019-05-05T13:06:21.198Z,1.10
2019-05-05T13:08:51.597Z,1.20
2019-05-05T13:11:23.763Z,0.90
2019-05-05T13:13:54.660Z,1.20
2019-05-05T13:16:25.218Z,1.00
2019-05-05T13:18:55.825Z,1.25
2019-05-05T13:21:44.280Z,1.20
2019-05-05T13:24:34.419Z,1.37
2019-05-05T13:27:18.438Z,1.20
2019-05-05T13:29:44.238Z,0.95
2019-05-05T13:32:14.904Z,1.25
2019-05-05T13:34:45.311Z,0.90
2019-05-05T13:37:15.803Z,1.10
2019-05-05T13:39:46.173Z,1.10
2019-05-05T13:42:16.598Z,1.22
2019-05-05T13:44:55.175Z,1.37
2019-05-05T13:47:25.586Z,1.20
2019-05-05T13:50:03.690Z,1.47
2019-05-05T13:52:33.951Z,1.52
2019-05-05T13:55:04.580Z,1.10
2019-05-05T13:57:35.010Z,1.05
2019-05-05T14:00:06.403Z,1.37
2019-05-05T14:02:36.834Z,1.27
2019-05-05T14:05:07.357Z,1.50
2019-05-05T14:07:37.788Z,1.17
2019-05-05T14:10:08.195Z,1.10
2019-05-05T14:12:38.615Z,1.20
2019-05-05T14:15:12.378Z,1.10
2019-05-05T14:17:45.070Z,1.35
2019-05-05T14:20:15.521Z,1.05
2019-05-05T14:22:45.929Z,1.10
2019-05-05T14:25:24.071Z,1.00
2019-05-05T14:27:54.311Z,1.00
2019-05-05T14:30:44.268Z,1.07
2019-05-05T14:33:18.416Z,1.10
2019-05-05T14:36:16.799Z,1.02
2019-05-05T14:38:49.855Z,1.33
2019-05-05T14:41:20.311Z,1.32
2019-05-05T14:43:50.746Z,1.07
2019-05-05T14:46:21.134Z,1.00
2019-05-05T14:48:53.407Z,1.10
2019-05-05T14:51:23.724Z,1.03
2019-05-05T14:53:54.389Z,0.90
2019-05-05T14:56:35.748Z,0.80
2019-05-05T14:58:57.022Z,0.90
2019-05-05T15:01:27.420Z,1.00
2019-05-05T15:03:57.853Z,1.10
2019-05-05T15:06:39.751Z,0.93
2019-05-05T15:09:24.874Z,0.90
2019-05-05T15:12:17.010Z,1.20
2019-05-05T15:14:47.513Z,1.27
2019-05-05T15:17:18.011Z,1.10
2019-05-05T15:19:48.453Z,1.20
2019-05-05T15:22:18.952Z,0.90
2019-05-05T15:24:49.386Z,1.10
2019-05-05T15:27:19.890Z,0.90
2019-05-05T15:29:50.327Z,1.15
2019-05-05T15:32:20.778Z,1.00
2019-05-05T15:34:51.188Z,1.20
2019-05-05T15:37:23.619Z,0.80
2019-05-05T15:39:53.855Z,1.25
2019-05-05T15:42:24.335Z,1.32
2019-05-05T15:44:54.717Z,3.90
2019-05-05T15:47:26.710Z,1.50
2019-05-05T15:49:58.810Z,1.10
2019-05-05T15:52:29.251Z,1.30
2019-05-05T15:54:59.676Z,1.30
2019-05-05T15:57:30.113Z,1.13
2019-05-05T16:00:00.608Z,2.20
2019-05-05T16:02:31.059Z,8.93
2019-05-05T16:05:01.451Z,22.65
2019-05-05T16:07:33.378Z,8.37
2019-05-05T16:10:04.203Z,7.87
2019-05-05T16:12:39.334Z,31.97
2019-05-05T16:15:36.519Z,16.85
2019-05-05T16:18:13.601Z,10.10
2019-05-05T16:20:51.705Z,7.10
2019-05-05T16:23:25.261Z,2.12
2019-05-05T16:25:55.699Z,1.50
2019-05-05T16:28:26.111Z,1.32
2019-05-05T16:30:56.505Z,1.15
2019-05-05T16:33:26.928Z,1.40
2019-05-05T16:35:57.364Z,1.10
2019-05-05T16:38:27.761Z,1.40
2019-05-05T16:40:58.193Z,2.02
2019-05-05T16:43:28.642Z,1.20
2019-05-05T16:45:59.153Z,1.20
2019-05-05T16:48:29.655Z,1.30
2019-05-05T16:51:00.165Z,1.20
2019-05-05T16:53:37.285Z,1.10
2019-05-05T16:56:11.057Z,1.25
2019-05-05T16:58:41.582Z,1.10
2019-05-05T17:01:14.823Z,1.25
2019-05-05T17:03:45.869Z,0.90
2019-05-05T17:06:16.463Z,1.20
2019-05-05T17:08:46.930Z,1.10
2019-05-05T17:11:18.463Z,1.12
2019-05-05T17:13:57.903Z,1.15
2019-05-05T17:16:50.018Z,1.10
2019-05-05T17:19:44.297Z,1.02
2019-05-05T17:22:21.642Z,1.27
2019-05-05T17:24:53.511Z,1.20
2019-05-05T17:27:24.236Z,1.00
2019-05-05T17:29:54.693Z,1.00
2019-05-05T17:32:27.590Z,1.00
2019-05-05T17:34:58.060Z,0.95
2019-05-05T17:37:28.504Z,1.12
2019-05-05T17:40:04.272Z,1.20
2019-05-05T17:43:06.081Z,1.10
2019-05-05T17:45:55.120Z,1.30
2019-05-05T17:48:32.824Z,1.32
2019-05-05T17:51:19.399Z,5.00
2019-05-05T17:54:08.829Z,10.70
2019-05-05T17:56:39.272Z,6.92
2019-05-05T17:59:09.700Z,3.50
2019-05-05T18:01:40.142Z,1.80
2019-05-05T18:04:10.626Z,1.42
2019-05-05T18:07:05.624Z,1.40
2019-05-05T18:09:53.979Z,1.80
2019-05-05T18:12:45.154Z,1.15
2019-05-05T18:15:34.104Z,1.20
2019-05-05T18:18:04.768Z,1.30
2019-05-05T18:20:35.290Z,1.10
2019-05-05T18:23:05.696Z,1.45
2019-05-05T18:25:36.166Z,1.20
2019-05-05T18:28:15.716Z,1.12
2019-05-05T18:30:38.689Z,1.40
2019-05-05T18:33:09.102Z,1.20
2019-05-05T18:35:39.560Z,1.30
2019-05-05T18:38:09.958Z,1.62
2019-05-05T18:40:40.417Z,1.40
2019-05-05T18:43:16.048Z,1.52
2019-05-05T18:45:48.082Z,2.00
2019-05-05T18:48:18.551Z,1.55
2019-05-05T18:50:49.030Z,2.00
2019-05-05T18:53:19.502Z,4.53
2019-05-05T18:55:49.908Z,3.40
2019-05-05T18:58:27.199Z,2.30
2019-05-05T19:01:13.493Z,1.75
2019-05-05T19:04:04.057Z,1.35
2019-05-05T19:06:54.662Z,1.50
2019-05-05T19:09:25.143Z,1.50
2019-05-05T19:11:55.908Z,1.20
2019-05-05T19:14:26.367Z,1.42
2019-05-05T19:16:59.158Z,1.32
2019-05-05T19:19:29.675Z,1.70
2019-05-05T19:22:04.412Z,1.40
2019-05-05T19:24:36.000Z,1.87
2019-05-05T19:27:06.436Z,1.90
2019-05-05T19:29:36.862Z,1.52
2019-05-05T19:32:07.295Z,1.25
2019-05-05T19:34:37.730Z,1.55
2019-05-05T19:37:08.197Z,1.50
2019-05-05T19:39:38.593Z,1.77
2019-05-05T19:42:09.023Z,1.62
2019-05-05T19:44:39.407Z,1.60
2019-05-05T19:47:21.210Z,1.72
2019-05-05T19:50:06.415Z,1.47
2019-05-05T19:52:36.902Z,1.95
2019-05-05T19:55:07.418Z,1.70
2019-05-05T19:57:37.827Z,2.10
2019-05-05T20:00:08.673Z,1.50
2019-05-05T20:02:39.089Z,2.30
2019-05-05T20:05:10.103Z,2.00
2019-05-05T20:07:40.543Z,2.70
2019-05-05T20:10:11.138Z,1.95
2019-05-05T20:12:44.746Z,1.70
2019-05-05T20:15:19.111Z,1.92
2019-05-05T20:17:49.550Z,2.15
2019-05-05T20:20:20.109Z,2.47
2019-05-05T20:22:50.582Z,2.12
2019-05-05T20:25:20.989Z,2.10
2019-05-05T20:27:51.499Z,1.70
2019-05-05T20:30:21.904Z,1.85
2019-05-05T20:32:58.362Z,1.62
2019-05-05T20:35:44.694Z,1.60
2019-05-05T20:38:20.998Z,1.80
2019-05-05T20:41:13.970Z,1.70
2019-05-05T20:43:44.873Z,1.42
2019-05-05T20:46:15.567Z,1.35
2019-05-05T20:48:46.042Z,2.20
2019-05-05T20:51:16.444Z,2.08
2019-05-05T20:53:49.063Z,1.77
2019-05-05T20:56:18.991Z,1.70
2019-05-05T20:58:49.567Z,1.42
2019-05-05T21:01:19.940Z,1.70
2019-05-05T21:03:50.374Z,1.57
2019-05-05T21:06:20.772Z,2.25
2019-05-05T21:08:51.209Z,2.60
2019-05-05T21:11:21.607Z,2.50
2019-05-05T21:13:54.211Z,2.08
2019-05-05T21:16:24.165Z,1.90
2019-05-05T21:18:54.614Z,1.95
2019-05-05T21:21:27.271Z,2.20
2019-05-05T21:23:59.633Z,2.37
2019-05-05T21:26:47.786Z,2.08
2019-05-05T21:29:18.318Z,1.72
2019-05-05T21:31:48.729Z,2.47
2019-05-05T21:34:19.221Z,2.40
2019-05-05T21:36:49.630Z,2.30
2019-05-05T21:39:20.082Z,2.05
2019-05-05T21:41:50.465Z,2.87
2019-05-05T21:44:20.848Z,2.65
2019-05-05T21:46:53.485Z,2.62
2019-05-05T21:49:24.251Z,2.50
2019-05-05T21:52:16.973Z,2.27
2019-05-05T21:55:10.218Z,3.08
2019-05-05T21:57:58.112Z,2.90
2019-05-05T22:00:46.261Z,3.37
2019-05-05T22:03:23.656Z,6.30
2019-05-05T22:05:56.049Z,4.70
2019-05-05T22:08:26.303Z,4.80
2019-05-05T22:10:56.796Z,4.05
2019-05-05T22:13:27.294Z,3.55
2019-05-05T22:15:57.693Z,4.10
2019-05-05T22:18:28.085Z,3.55
2019-05-05T22:21:20.486Z,3.20
2019-05-05T22:24:13.707Z,2.90
2019-05-05T22:26:44.652Z,2.90
2019-05-05T22:29:17.014Z,3.27
2019-05-05T22:31:48.001Z,2.92
2019-05-05T22:34:18.386Z,3.00
2019-05-05T22:36:48.769Z,2.77
2019-05-05T22:39:19.195Z,2.80
2019-05-05T22:41:50.397Z,3.12
2019-05-05T22:44:20.837Z,2.77
2019-05-05T22:46:51.210Z,2.87
2019-05-05T22:49:21.599Z,2.58
2019-05-05T22:51:54.017Z,2.75
2019-05-05T22:54:24.213Z,3.22
2019-05-05T22:56:54.618Z,2.50
2019-05-05T22:59:26.200Z,2.98
2019-05-05T23:01:56.632Z,4.45
2019-05-05T23:04:34.763Z,4.67
2019-05-05T23:07:14.432Z,4.90
2019-05-05T23:09:44.927Z,5.20
2019-05-05T23:12:15.270Z,4.33
2019-05-05T23:14:45.646Z,4.80
2019-05-05T23:17:43.845Z,4.08
2019-05-05T23:20:44.559Z,4.42
2019-05-05T23:23:26.364Z,4.53
2019-05-05T23:25:57.845Z,3.58
2019-05-05T23:28:28.207Z,3.98
2019-05-05T23:30:58.587Z,3.50
2019-05-05T23:33:28.969Z,4.42
2019-05-05T23:35:59.344Z,4.28
2019-05-05T23:38:29.702Z,4.00
2019-05-05T23:41:00.086Z,4.28
2019-05-05T23:43:30.434Z,3.45
2019-05-05T23:46:03.580Z,3.87
2019-05-05T23:48:34.823Z,3.20
2019-05-05T23:51:05.417Z,3.98
2019-05-05T23:53:35.775Z,3.62
2019-05-05T23:56:06.144Z,3.58
2019-05-05T23:58:36.492Z,3.52
